sensor_id;sensor_type;location;lat;lon;timestamp;P1;durP1;ratioP1;P2;durP2;ratioP2
13611;SDS011;6877;51.436;6.774;2023-01-19T00:00:17;28.75;;;15.43;;
13611;SDS011;6877;51.436;6.774;2023-01-19T00:02:50;30.90;;;15.00;;
13611;SDS011;6877;51.436;6.774;2023-01-19T00:05:22;27.27;;;16.05;;
13611;SDS011;6877;51.436;6.774;2023-01-19T00:07:55;27.00;;;15.75;;
13611;SDS011;6877;51.436;6.774;2023-01-19T00:10:22;28.05;;;15.43;;
13611;SDS011;6877;51.436;6.774;2023-01-19T00:12:48;27.92;;;15.63;;
13611;SDS011;6877;51.436;6.774;2023-01-19T00:15:20;22.55;;;13.80;;
13611;SDS011;6877;51.436;6.774;2023-01-19T00:17:50;31.27;;;15.35;;
13611;SDS011;6877;51.436;6.774;2023-01-19T00:20:30;27.00;;;14.88;;
13611;SDS011;6877;51.436;6.774;2023-01-19T00:23:01;28.80;;;16.33;;
13611;SDS011;6877;51.436;6.774;2023-01-19T00:25:31;29.70;;;15.10;;
13611;SDS011;6877;51.436;6.774;2023-01-19T00:28:09;28.00;;;15.68;;
13611;SDS011;6877;51.436;6.774;2023-01-19T00:30:46;29.00;;;15.10;;
13611;SDS011;6877;51.436;6.774;2023-01-19T00:33:21;27.55;;;13.90;;
13611;SDS011;6877;51.436;6.774;2023-01-19T00:35:52;25.83;;;14.18;;
13611;SDS011;6877;51.436;6.774;2023-01-19T00:38:22;24.38;;;13.43;;
13611;SDS011;6877;51.436;6.774;2023-01-19T00:40:49;23.70;;;14.07;;
13611;SDS011;6877;51.436;6.774;2023-01-19T00:43:19;24.38;;;14.15;;
13611;SDS011;6877;51.436;6.774;2023-01-19T00:45:54;27.35;;;15.20;;
13611;SDS011;6877;51.436;6.774;2023-01-19T00:48:26;28.08;;;14.60;;
13611;SDS011;6877;51.436;6.774;2023-01-19T00:50:52;24.85;;;13.68;;
13611;SDS011;6877;51.436;6.774;2023-01-19T00:53:21;28.92;;;15.57;;
13611;SDS011;6877;51.436;6.774;2023-01-19T00:55:47;26.77;;;13.88;;
13611;SDS011;6877;51.436;6.774;2023-01-19T00:58:32;24.63;;;13.68;;
13611;SDS011;6877;51.436;6.774;2023-01-19T01:01:13;25.33;;;14.63;;
13611;SDS011;6877;51.436;6.774;2023-01-19T01:03:39;24.85;;;13.95;;
13611;SDS011;6877;51.436;6.774;2023-01-19T01:06:09;23.48;;;14.05;;
13611;SDS011;6877;51.436;6.774;2023-01-19T01:08:50;23.55;;;13.98;;
13611;SDS011;6877;51.436;6.774;2023-01-19T01:11:25;29.23;;;15.00;;
13611;SDS011;6877;51.436;6.774;2023-01-19T01:13:52;27.50;;;14.50;;
13611;SDS011;6877;51.436;6.774;2023-01-19T01:16:19;28.70;;;14.55;;
13611;SDS011;6877;51.436;6.774;2023-01-19T01:18:48;26.50;;;14.15;;
13611;SDS011;6877;51.436;6.774;2023-01-19T01:21:15;27.58;;;15.43;;
13611;SDS011;6877;51.436;6.774;2023-01-19T01:23:42;25.85;;;14.57;;
13611;SDS011;6877;51.436;6.774;2023-01-19T01:26:12;27.77;;;14.07;;
13611;SDS011;6877;51.436;6.774;2023-01-19T01:28:42;24.55;;;14.13;;
13611;SDS011;6877;51.436;6.774;2023-01-19T01:31:14;23.50;;;13.02;;
13611;SDS011;6877;51.436;6.774;2023-01-19T01:33:41;22.92;;;13.05;;
13611;SDS011;6877;51.436;6.774;2023-01-19T01:39:20;21.65;;;12.63;;
13611;SDS011;6877;51.436;6.774;2023-01-19T01:41:57;27.60;;;15.02;;
13611;SDS011;6877;51.436;6.774;2023-01-19T01:44:43;34.67;;;15.35;;
13611;SDS011;6877;51.436;6.774;2023-01-19T01:47:43;24.67;;;13.68;;
13611;SDS011;6877;51.436;6.774;2023-01-19T01:50:16;26.25;;;12.70;;
13611;SDS011;6877;51.436;6.774;2023-01-19T01:52:49;27.67;;;15.32;;
13611;SDS011;6877;51.436;6.774;2023-01-19T01:55:26;21.95;;;12.27;;
13611;SDS011;6877;51.436;6.774;2023-01-19T01:57:58;23.70;;;14.13;;
13611;SDS011;6877;51.436;6.774;2023-01-19T02:00:28;22.73;;;12.45;;
13611;SDS011;6877;51.436;6.774;2023-01-19T02:03:21;26.65;;;13.52;;
13611;SDS011;6877;51.436;6.774;2023-01-19T02:05:56;25.13;;;13.32;;
13611;SDS011;6877;51.436;6.774;2023-01-19T02:11:33;30.30;;;13.80;;
13611;SDS011;6877;51.436;6.774;2023-01-19T02:14:19;26.65;;;13.50;;
13611;SDS011;6877;51.436;6.774;2023-01-19T02:16:46;23.23;;;12.82;;
13611;SDS011;6877;51.436;6.774;2023-01-19T02:19:15;30.75;;;14.88;;
13611;SDS011;6877;51.436;6.774;2023-01-19T02:24:27;25.35;;;13.57;;
13611;SDS011;6877;51.436;6.774;2023-01-19T02:26:54;25.85;;;13.15;;
13611;SDS011;6877;51.436;6.774;2023-01-19T02:29:27;21.15;;;12.80;;
13611;SDS011;6877;51.436;6.774;2023-01-19T02:31:54;21.48;;;11.90;;
13611;SDS011;6877;51.436;6.774;2023-01-19T02:34:22;26.15;;;14.15;;
13611;SDS011;6877;51.436;6.774;2023-01-19T02:36:51;23.55;;;12.80;;
13611;SDS011;6877;51.436;6.774;2023-01-19T02:39:24;20.55;;;12.55;;
13611;SDS011;6877;51.436;6.774;2023-01-19T02:41:58;24.40;;;12.30;;
13611;SDS011;6877;51.436;6.774;2023-01-19T02:44:28;23.35;;;14.20;;
13611;SDS011;6877;51.436;6.774;2023-01-19T02:47:01;20.20;;;12.20;;
13611;SDS011;6877;51.436;6.774;2023-01-19T02:49:30;24.15;;;12.75;;
13611;SDS011;6877;51.436;6.774;2023-01-19T02:51:57;21.52;;;11.88;;
13611;SDS011;6877;51.436;6.774;2023-01-19T02:54:38;23.27;;;11.43;;
13611;SDS011;6877;51.436;6.774;2023-01-19T03:03:16;34.60;;;15.38;;
13611;SDS011;6877;51.436;6.774;2023-01-19T03:11:17;25.92;;;13.32;;
13611;SDS011;6877;51.436;6.774;2023-01-19T03:13:56;24.73;;;11.95;;
13611;SDS011;6877;51.436;6.774;2023-01-19T03:16:40;25.92;;;13.25;;
13611;SDS011;6877;51.436;6.774;2023-01-19T03:21:53;26.85;;;12.50;;
13611;SDS011;6877;51.436;6.774;2023-01-19T03:24:23;25.83;;;13.48;;
13611;SDS011;6877;51.436;6.774;2023-01-19T03:26:52;23.80;;;12.88;;
13611;SDS011;6877;51.436;6.774;2023-01-19T03:29:36;25.08;;;12.60;;
13611;SDS011;6877;51.436;6.774;2023-01-19T03:32:08;23.45;;;12.23;;
13611;SDS011;6877;51.436;6.774;2023-01-19T03:34:38;25.45;;;11.82;;
13611;SDS011;6877;51.436;6.774;2023-01-19T03:37:09;21.48;;;11.50;;
13611;SDS011;6877;51.436;6.774;2023-01-19T03:39:41;18.35;;;10.80;;
13611;SDS011;6877;51.436;6.774;2023-01-19T03:42:09;22.88;;;11.73;;
13611;SDS011;6877;51.436;6.774;2023-01-19T03:44:39;20.50;;;10.45;;
13611;SDS011;6877;51.436;6.774;2023-01-19T03:47:13;20.15;;;10.18;;
13611;SDS011;6877;51.436;6.774;2023-01-19T03:49:40;22.63;;;11.30;;
13611;SDS011;6877;51.436;6.774;2023-01-19T03:52:10;20.35;;;10.77;;
13611;SDS011;6877;51.436;6.774;2023-01-19T03:54:37;18.92;;;10.68;;
13611;SDS011;6877;51.436;6.774;2023-01-19T03:57:06;22.05;;;11.13;;
13611;SDS011;6877;51.436;6.774;2023-01-19T03:59:32;17.95;;;11.13;;
13611;SDS011;6877;51.436;6.774;2023-01-19T04:02:04;21.23;;;12.20;;
13611;SDS011;6877;51.436;6.774;2023-01-19T04:04:34;27.90;;;12.20;;
13611;SDS011;6877;51.436;6.774;2023-01-19T04:07:06;22.85;;;12.57;;
13611;SDS011;6877;51.436;6.774;2023-01-19T04:09:33;22.88;;;12.18;;
13611;SDS011;6877;51.436;6.774;2023-01-19T04:12:00;22.15;;;11.25;;
13611;SDS011;6877;51.436;6.774;2023-01-19T04:14:27;23.25;;;11.45;;
13611;SDS011;6877;51.436;6.774;2023-01-19T04:16:53;27.60;;;12.38;;
13611;SDS011;6877;51.436;6.774;2023-01-19T04:19:20;26.35;;;12.07;;
13611;SDS011;6877;51.436;6.774;2023-01-19T04:21:51;21.15;;;11.98;;
13611;SDS011;6877;51.436;6.774;2023-01-19T04:24:18;29.65;;;12.98;;
13611;SDS011;6877;51.436;6.774;2023-01-19T04:26:44;29.65;;;12.75;;
13611;SDS011;6877;51.436;6.774;2023-01-19T04:29:15;23.98;;;11.90;;
13611;SDS011;6877;51.436;6.774;2023-01-19T04:31:42;24.23;;;11.45;;
13611;SDS011;6877;51.436;6.774;2023-01-19T04:34:13;25.35;;;12.80;;
13611;SDS011;6877;51.436;6.774;2023-01-19T04:36:39;24.00;;;12.57;;
13611;SDS011;6877;51.436;6.774;2023-01-19T04:39:11;26.27;;;13.65;;
13611;SDS011;6877;51.436;6.774;2023-01-19T04:41:37;24.50;;;12.57;;
13611;SDS011;6877;51.436;6.774;2023-01-19T04:44:04;31.00;;;12.65;;
13611;SDS011;6877;51.436;6.774;2023-01-19T04:46:35;28.42;;;14.27;;
13611;SDS011;6877;51.436;6.774;2023-01-19T04:49:02;29.73;;;13.85;;
13611;SDS011;6877;51.436;6.774;2023-01-19T04:51:28;30.00;;;14.65;;
13611;SDS011;6877;51.436;6.774;2023-01-19T04:53:56;28.48;;;13.90;;
13611;SDS011;6877;51.436;6.774;2023-01-19T04:56:27;25.58;;;12.80;;
13611;SDS011;6877;51.436;6.774;2023-01-19T04:58:54;28.85;;;14.27;;
13611;SDS011;6877;51.436;6.774;2023-01-19T05:01:24;32.22;;;14.45;;
13611;SDS011;6877;51.436;6.774;2023-01-19T05:03:51;35.38;;;15.93;;
13611;SDS011;6877;51.436;6.774;2023-01-19T05:06:18;34.13;;;16.38;;
13611;SDS011;6877;51.436;6.774;2023-01-19T05:08:45;38.67;;;16.85;;
13611;SDS011;6877;51.436;6.774;2023-01-19T05:11:11;29.45;;;15.52;;
13611;SDS011;6877;51.436;6.774;2023-01-19T05:13:37;32.85;;;15.75;;
13611;SDS011;6877;51.436;6.774;2023-01-19T05:16:04;33.45;;;14.73;;
13611;SDS011;6877;51.436;6.774;2023-01-19T05:18:36;31.13;;;14.45;;
13611;SDS011;6877;51.436;6.774;2023-01-19T05:21:08;29.75;;;14.48;;
13611;SDS011;6877;51.436;6.774;2023-01-19T05:23:39;27.38;;;13.60;;
13611;SDS011;6877;51.436;6.774;2023-01-19T05:26:06;29.38;;;13.60;;
13611;SDS011;6877;51.436;6.774;2023-01-19T05:28:37;24.67;;;12.40;;
13611;SDS011;6877;51.436;6.774;2023-01-19T05:31:04;31.25;;;13.38;;
13611;SDS011;6877;51.436;6.774;2023-01-19T05:33:30;21.30;;;11.15;;
13611;SDS011;6877;51.436;6.774;2023-01-19T05:35:56;27.92;;;13.52;;
13611;SDS011;6877;51.436;6.774;2023-01-19T05:38:28;26.75;;;13.48;;
13611;SDS011;6877;51.436;6.774;2023-01-19T05:40:57;22.42;;;12.07;;
13611;SDS011;6877;51.436;6.774;2023-01-19T05:43:24;26.05;;;12.20;;
13611;SDS011;6877;51.436;6.774;2023-01-19T05:45:50;23.27;;;11.10;;
13611;SDS011;6877;51.436;6.774;2023-01-19T05:48:17;28.45;;;13.18;;
13611;SDS011;6877;51.436;6.774;2023-01-19T05:50:48;24.65;;;13.30;;
13611;SDS011;6877;51.436;6.774;2023-01-19T05:53:20;22.95;;;12.45;;
13611;SDS011;6877;51.436;6.774;2023-01-19T05:55:46;22.65;;;12.40;;
13611;SDS011;6877;51.436;6.774;2023-01-19T05:58:12;33.75;;;12.73;;
13611;SDS011;6877;51.436;6.774;2023-01-19T06:00:39;22.23;;;12.25;;
13611;SDS011;6877;51.436;6.774;2023-01-19T06:03:06;23.67;;;12.95;;
13611;SDS011;6877;51.436;6.774;2023-01-19T06:05:32;23.42;;;12.95;;
13611;SDS011;6877;51.436;6.774;2023-01-19T06:08:05;24.95;;;12.00;;
13611;SDS011;6877;51.436;6.774;2023-01-19T06:10:36;20.00;;;11.05;;
13611;SDS011;6877;51.436;6.774;2023-01-19T06:13:08;21.55;;;11.20;;
13611;SDS011;6877;51.436;6.774;2023-01-19T06:15:36;18.02;;;10.02;;
13611;SDS011;6877;51.436;6.774;2023-01-19T06:18:07;21.45;;;10.93;;
13611;SDS011;6877;51.436;6.774;2023-01-19T06:20:36;20.05;;;11.05;;
13611;SDS011;6877;51.436;6.774;2023-01-19T06:23:03;23.08;;;11.95;;
13611;SDS011;6877;51.436;6.774;2023-01-19T06:25:29;19.83;;;10.82;;
13611;SDS011;6877;51.436;6.774;2023-01-19T06:28:01;21.02;;;11.75;;
13611;SDS011;6877;51.436;6.774;2023-01-19T06:30:27;18.80;;;11.77;;
13611;SDS011;6877;51.436;6.774;2023-01-19T06:32:54;19.15;;;10.25;;
13611;SDS011;6877;51.436;6.774;2023-01-19T06:35:20;21.02;;;10.88;;
13611;SDS011;6877;51.436;6.774;2023-01-19T06:37:46;22.27;;;11.20;;
13611;SDS011;6877;51.436;6.774;2023-01-19T06:40:13;22.27;;;11.45;;
13611;SDS011;6877;51.436;6.774;2023-01-19T06:42:39;28.83;;;13.52;;
13611;SDS011;6877;51.436;6.774;2023-01-19T06:45:06;23.80;;;13.40;;
13611;SDS011;6877;51.436;6.774;2023-01-19T06:47:40;24.15;;;13.00;;
13611;SDS011;6877;51.436;6.774;2023-01-19T06:50:11;27.30;;;12.73;;
13611;SDS011;6877;51.436;6.774;2023-01-19T06:52:37;20.52;;;11.98;;
13611;SDS011;6877;51.436;6.774;2023-01-19T06:55:08;26.88;;;13.35;;
13611;SDS011;6877;51.436;6.774;2023-01-19T06:57:38;23.35;;;12.35;;
13611;SDS011;6877;51.436;6.774;2023-01-19T07:00:05;22.08;;;12.50;;
13611;SDS011;6877;51.436;6.774;2023-01-19T07:02:34;23.30;;;11.15;;
13611;SDS011;6877;51.436;6.774;2023-01-19T07:05:02;22.70;;;12.30;;
13611;SDS011;6877;51.436;6.774;2023-01-19T07:07:34;23.88;;;12.40;;
13611;SDS011;6877;51.436;6.774;2023-01-19T07:10:00;28.50;;;14.23;;
13611;SDS011;6877;51.436;6.774;2023-01-19T07:12:27;34.80;;;15.75;;
13611;SDS011;6877;51.436;6.774;2023-01-19T07:15:00;25.70;;;12.65;;
13611;SDS011;6877;51.436;6.774;2023-01-19T07:17:26;24.33;;;12.32;;
13611;SDS011;6877;51.436;6.774;2023-01-19T07:19:53;31.00;;;14.60;;
13611;SDS011;6877;51.436;6.774;2023-01-19T07:22:24;32.90;;;15.55;;
13611;SDS011;6877;51.436;6.774;2023-01-19T07:24:51;33.40;;;16.50;;
13611;SDS011;6877;51.436;6.774;2023-01-19T07:27:17;32.00;;;14.52;;
13611;SDS011;6877;51.436;6.774;2023-01-19T07:29:43;43.67;;;16.48;;
13611;SDS011;6877;51.436;6.774;2023-01-19T07:32:15;43.08;;;20.23;;
13611;SDS011;6877;51.436;6.774;2023-01-19T07:34:42;46.72;;;19.92;;
13611;SDS011;6877;51.436;6.774;2023-01-19T07:37:14;33.42;;;15.65;;
13611;SDS011;6877;51.436;6.774;2023-01-19T07:39:58;44.65;;;16.70;;
13611;SDS011;6877;51.436;6.774;2023-01-19T07:42:24;40.55;;;15.98;;
13611;SDS011;6877;51.436;6.774;2023-01-19T07:44:56;36.70;;;17.80;;
13611;SDS011;6877;51.436;6.774;2023-01-19T07:47:22;32.28;;;16.70;;
13611;SDS011;6877;51.436;6.774;2023-01-19T07:49:54;37.53;;;14.38;;
13611;SDS011;6877;51.436;6.774;2023-01-19T07:52:24;29.13;;;14.93;;
13611;SDS011;6877;51.436;6.774;2023-01-19T07:55:05;30.02;;;14.40;;
13611;SDS011;6877;51.436;6.774;2023-01-19T07:57:40;30.17;;;14.07;;
13611;SDS011;6877;51.436;6.774;2023-01-19T08:00:21;25.30;;;12.98;;
13611;SDS011;6877;51.436;6.774;2023-01-19T08:02:51;26.60;;;13.57;;
13611;SDS011;6877;51.436;6.774;2023-01-19T08:05:26;26.75;;;13.57;;
13611;SDS011;6877;51.436;6.774;2023-01-19T08:08:11;32.92;;;14.95;;
13611;SDS011;6877;51.436;6.774;2023-01-19T08:10:47;33.92;;;16.10;;
13611;SDS011;6877;51.436;6.774;2023-01-19T08:13:20;37.38;;;17.55;;
13611;SDS011;6877;51.436;6.774;2023-01-19T08:15:53;34.45;;;15.85;;
13611;SDS011;6877;51.436;6.774;2023-01-19T08:18:19;35.97;;;16.27;;
13611;SDS011;6877;51.436;6.774;2023-01-19T08:20:54;27.83;;;14.13;;
13611;SDS011;6877;51.436;6.774;2023-01-19T08:23:20;33.20;;;16.20;;
13611;SDS011;6877;51.436;6.774;2023-01-19T08:25:52;32.05;;;17.33;;
13611;SDS011;6877;51.436;6.774;2023-01-19T08:28:19;39.53;;;17.70;;
13611;SDS011;6877;51.436;6.774;2023-01-19T08:30:46;37.60;;;17.08;;
13611;SDS011;6877;51.436;6.774;2023-01-19T08:33:19;36.80;;;17.13;;
13611;SDS011;6877;51.436;6.774;2023-01-19T08:35:51;36.88;;;18.73;;
13611;SDS011;6877;51.436;6.774;2023-01-19T08:38:23;53.45;;;22.52;;
13611;SDS011;6877;51.436;6.774;2023-01-19T08:40:50;46.67;;;21.70;;
13611;SDS011;6877;51.436;6.774;2023-01-19T08:43:16;43.92;;;19.27;;
13611;SDS011;6877;51.436;6.774;2023-01-19T08:45:49;45.67;;;22.38;;
13611;SDS011;6877;51.436;6.774;2023-01-19T08:48:18;40.50;;;20.92;;
13611;SDS011;6877;51.436;6.774;2023-01-19T08:50:48;44.35;;;20.13;;
13611;SDS011;6877;51.436;6.774;2023-01-19T08:53:18;37.55;;;18.67;;
13611;SDS011;6877;51.436;6.774;2023-01-19T08:55:46;33.30;;;16.95;;
13611;SDS011;6877;51.436;6.774;2023-01-19T08:58:12;36.55;;;15.73;;
13611;SDS011;6877;51.436;6.774;2023-01-19T09:00:39;28.08;;;15.52;;
13611;SDS011;6877;51.436;6.774;2023-01-19T09:03:06;26.77;;;14.25;;
13611;SDS011;6877;51.436;6.774;2023-01-19T09:05:34;31.33;;;15.00;;
13611;SDS011;6877;51.436;6.774;2023-01-19T09:08:09;25.70;;;13.65;;
13611;SDS011;6877;51.436;6.774;2023-01-19T09:10:37;29.80;;;15.70;;
13611;SDS011;6877;51.436;6.774;2023-01-19T09:13:08;26.95;;;16.52;;
13611;SDS011;6877;51.436;6.774;2023-01-19T09:15:36;26.02;;;14.77;;
13611;SDS011;6877;51.436;6.774;2023-01-19T09:18:04;25.98;;;14.60;;
13611;SDS011;6877;51.436;6.774;2023-01-19T09:20:34;33.15;;;15.38;;
13611;SDS011;6877;51.436;6.774;2023-01-19T09:23:04;27.02;;;15.60;;
13611;SDS011;6877;51.436;6.774;2023-01-19T09:25:31;26.05;;;15.73;;
13611;SDS011;6877;51.436;6.774;2023-01-19T09:28:03;27.13;;;15.57;;
13611;SDS011;6877;51.436;6.774;2023-01-19T09:30:39;27.38;;;15.30;;
13611;SDS011;6877;51.436;6.774;2023-01-19T09:33:16;42.17;;;17.65;;
13611;SDS011;6877;51.436;6.774;2023-01-19T09:35:44;31.27;;;16.80;;
13611;SDS011;6877;51.436;6.774;2023-01-19T09:38:12;29.38;;;16.83;;
13611;SDS011;6877;51.436;6.774;2023-01-19T09:43:50;37.50;;;18.20;;
13611;SDS011;6877;51.436;6.774;2023-01-19T09:46:27;35.88;;;17.95;;
13611;SDS011;6877;51.436;6.774;2023-01-19T09:48:58;34.13;;;18.40;;
13611;SDS011;6877;51.436;6.774;2023-01-19T09:51:34;31.25;;;16.15;;
13611;SDS011;6877;51.436;6.774;2023-01-19T09:54:11;32.08;;;17.42;;
13611;SDS011;6877;51.436;6.774;2023-01-19T09:56:41;40.63;;;17.98;;
13611;SDS011;6877;51.436;6.774;2023-01-19T09:59:16;35.95;;;17.13;;
13611;SDS011;6877;51.436;6.774;2023-01-19T10:04:28;33.97;;;18.42;;
13611;SDS011;6877;51.436;6.774;2023-01-19T10:07:01;35.55;;;20.00;;
13611;SDS011;6877;51.436;6.774;2023-01-19T10:18:24;42.90;;;20.88;;
13611;SDS011;6877;51.436;6.774;2023-01-19T10:26:22;34.88;;;20.33;;
13611;SDS011;6877;51.436;6.774;2023-01-19T10:32:35;42.28;;;21.13;;
13611;SDS011;6877;51.436;6.774;2023-01-19T10:34:48;44.33;;;19.15;;
13611;SDS011;6877;51.436;6.774;2023-01-19T10:37:19;38.95;;;20.10;;
13611;SDS011;6877;51.436;6.774;2023-01-19T10:42:38;44.10;;;19.55;;
13611;SDS011;6877;51.436;6.774;2023-01-19T10:45:20;44.10;;;22.10;;
13611;SDS011;6877;51.436;6.774;2023-01-19T10:47:48;40.10;;;19.58;;
13611;SDS011;6877;51.436;6.774;2023-01-19T10:50:26;45.47;;;20.25;;
13611;SDS011;6877;51.436;6.774;2023-01-19T10:52:56;35.75;;;19.45;;
13611;SDS011;6877;51.436;6.774;2023-01-19T10:55:25;43.00;;;20.83;;
13611;SDS011;6877;51.436;6.774;2023-01-19T10:57:57;35.97;;;19.15;;
13611;SDS011;6877;51.436;6.774;2023-01-19T11:02:57;40.28;;;22.30;;
13611;SDS011;6877;51.436;6.774;2023-01-19T11:05:24;42.97;;;19.58;;
13611;SDS011;6877;51.436;6.774;2023-01-19T11:07:53;38.00;;;19.15;;
13611;SDS011;6877;51.436;6.774;2023-01-19T11:10:27;35.17;;;17.75;;
13611;SDS011;6877;51.436;6.774;2023-01-19T11:12:59;38.42;;;20.42;;
13611;SDS011;6877;51.436;6.774;2023-01-19T11:15:45;44.35;;;20.13;;
13611;SDS011;6877;51.436;6.774;2023-01-19T11:18:41;43.22;;;20.92;;
13611;SDS011;6877;51.436;6.774;2023-01-19T11:21:16;38.55;;;18.92;;
13611;SDS011;6877;51.436;6.774;2023-01-19T11:23:50;55.17;;;22.23;;
13611;SDS011;6877;51.436;6.774;2023-01-19T11:29:23;41.75;;;20.63;;
13611;SDS011;6877;51.436;6.774;2023-01-19T11:31:52;39.28;;;18.90;;
13611;SDS011;6877;51.436;6.774;2023-01-19T11:34:29;46.83;;;21.50;;
13611;SDS011;6877;51.436;6.774;2023-01-19T11:36:57;47.33;;;21.35;;
13611;SDS011;6877;51.436;6.774;2023-01-19T11:39:30;40.25;;;19.73;;
13611;SDS011;6877;51.436;6.774;2023-01-19T11:42:10;53.72;;;23.00;;
13611;SDS011;6877;51.436;6.774;2023-01-19T11:44:41;48.95;;;24.80;;
13611;SDS011;6877;51.436;6.774;2023-01-19T11:47:57;47.60;;;22.58;;
13611;SDS011;6877;51.436;6.774;2023-01-19T11:50:23;60.35;;;22.50;;
13611;SDS011;6877;51.436;6.774;2023-01-19T11:55:46;49.03;;;27.17;;
13611;SDS011;6877;51.436;6.774;2023-01-19T11:58:18;50.42;;;22.27;;
13611;SDS011;6877;51.436;6.774;2023-01-19T12:03:25;52.75;;;22.08;;
13611;SDS011;6877;51.436;6.774;2023-01-19T12:06:05;56.05;;;24.75;;
13611;SDS011;6877;51.436;6.774;2023-01-19T12:08:36;67.93;;;25.23;;
13611;SDS011;6877;51.436;6.774;2023-01-19T12:11:09;54.47;;;23.98;;
13611;SDS011;6877;51.436;6.774;2023-01-19T12:13:39;59.15;;;27.80;;
13611;SDS011;6877;51.436;6.774;2023-01-19T12:19:04;44.38;;;20.70;;
13611;SDS011;6877;51.436;6.774;2023-01-19T12:21:38;44.70;;;20.45;;
13611;SDS011;6877;51.436;6.774;2023-01-19T12:26:57;38.30;;;19.35;;
13611;SDS011;6877;51.436;6.774;2023-01-19T12:29:30;42.67;;;19.35;;
13611;SDS011;6877;51.436;6.774;2023-01-19T12:34:47;39.38;;;18.52;;
13611;SDS011;6877;51.436;6.774;2023-01-19T12:40:00;42.70;;;21.00;;
13611;SDS011;6877;51.436;6.774;2023-01-19T12:43:00;37.38;;;18.80;;
13611;SDS011;6877;51.436;6.774;2023-01-19T12:45:37;40.78;;;20.00;;
13611;SDS011;6877;51.436;6.774;2023-01-19T12:48:04;42.40;;;21.80;;
13611;SDS011;6877;51.436;6.774;2023-01-19T12:50:49;38.05;;;19.73;;
13611;SDS011;6877;51.436;6.774;2023-01-19T12:53:17;41.33;;;21.02;;
13611;SDS011;6877;51.436;6.774;2023-01-19T12:55:48;46.95;;;19.80;;
13611;SDS011;6877;51.436;6.774;2023-01-19T12:58:24;41.92;;;20.80;;
13611;SDS011;6877;51.436;6.774;2023-01-19T13:01:10;40.40;;;20.83;;
13611;SDS011;6877;51.436;6.774;2023-01-19T13:03:43;45.17;;;19.52;;
13611;SDS011;6877;51.436;6.774;2023-01-19T13:09:34;41.67;;;18.55;;
13611;SDS011;6877;51.436;6.774;2023-01-19T13:14:47;41.92;;;19.13;;
13611;SDS011;6877;51.436;6.774;2023-01-19T13:19:52;32.80;;;18.42;;
13611;SDS011;6877;51.436;6.774;2023-01-19T13:25:48;30.95;;;16.17;;
13611;SDS011;6877;51.436;6.774;2023-01-19T13:28:27;28.38;;;17.02;;
13611;SDS011;6877;51.436;6.774;2023-01-19T13:31:00;34.83;;;17.58;;
13611;SDS011;6877;51.436;6.774;2023-01-19T13:33:28;36.92;;;17.90;;
13611;SDS011;6877;51.436;6.774;2023-01-19T13:36:03;31.67;;;16.35;;
13611;SDS011;6877;51.436;6.774;2023-01-19T13:38:35;30.70;;;14.55;;
13611;SDS011;6877;51.436;6.774;2023-01-19T13:41:02;32.53;;;16.52;;
13611;SDS011;6877;51.436;6.774;2023-01-19T13:43:31;30.95;;;15.13;;
13611;SDS011;6877;51.436;6.774;2023-01-19T13:46:08;28.92;;;15.80;;
13611;SDS011;6877;51.436;6.774;2023-01-19T13:48:53;32.47;;;14.73;;
13611;SDS011;6877;51.436;6.774;2023-01-19T13:51:27;34.55;;;13.75;;
13611;SDS011;6877;51.436;6.774;2023-01-19T13:53:54;35.28;;;14.23;;
13611;SDS011;6877;51.436;6.774;2023-01-19T13:56:23;30.80;;;14.13;;
13611;SDS011;6877;51.436;6.774;2023-01-19T13:58:57;31.20;;;14.63;;
13611;SDS011;6877;51.436;6.774;2023-01-19T14:01:30;40.38;;;19.17;;
13611;SDS011;6877;51.436;6.774;2023-01-19T14:03:58;33.28;;;16.27;;
13611;SDS011;6877;51.436;6.774;2023-01-19T14:09:06;35.30;;;16.85;;
13611;SDS011;6877;51.436;6.774;2023-01-19T14:11:43;29.58;;;15.60;;
13611;SDS011;6877;51.436;6.774;2023-01-19T14:14:20;37.22;;;16.27;;
13611;SDS011;6877;51.436;6.774;2023-01-19T14:17:03;38.40;;;14.20;;
13611;SDS011;6877;51.436;6.774;2023-01-19T14:19:45;37.15;;;16.73;;
13611;SDS011;6877;51.436;6.774;2023-01-19T14:22:18;29.95;;;16.50;;
13611;SDS011;6877;51.436;6.774;2023-01-19T14:24:44;33.38;;;14.57;;
13611;SDS011;6877;51.436;6.774;2023-01-19T14:27:21;29.17;;;15.43;;
13611;SDS011;6877;51.436;6.774;2023-01-19T14:29:53;34.42;;;17.25;;
13611;SDS011;6877;51.436;6.774;2023-01-19T14:32:20;37.65;;;16.50;;
13611;SDS011;6877;51.436;6.774;2023-01-19T14:37:17;46.28;;;18.92;;
13611;SDS011;6877;51.436;6.774;2023-01-19T14:39:48;42.67;;;17.85;;
13611;SDS011;6877;51.436;6.774;2023-01-19T14:42:21;32.30;;;17.65;;
13611;SDS011;6877;51.436;6.774;2023-01-19T14:44:51;37.28;;;18.40;;
13611;SDS011;6877;51.436;6.774;2023-01-19T14:47:20;40.25;;;18.38;;
13611;SDS011;6877;51.436;6.774;2023-01-19T14:49:52;37.55;;;18.13;;
13611;SDS011;6877;51.436;6.774;2023-01-19T14:52:28;32.33;;;17.65;;
13611;SDS011;6877;51.436;6.774;2023-01-19T14:55:01;28.98;;;14.05;;
13611;SDS011;6877;51.436;6.774;2023-01-19T14:57:32;24.90;;;14.05;;
13611;SDS011;6877;51.436;6.774;2023-01-19T15:00:13;36.15;;;16.80;;
13611;SDS011;6877;51.436;6.774;2023-01-19T15:02:43;26.50;;;14.45;;
13611;SDS011;6877;51.436;6.774;2023-01-19T15:05:10;33.83;;;14.65;;
13611;SDS011;6877;51.436;6.774;2023-01-19T15:07:37;32.85;;;16.17;;
13611;SDS011;6877;51.436;6.774;2023-01-19T15:10:09;35.28;;;15.88;;
13611;SDS011;6877;51.436;6.774;2023-01-19T15:12:41;37.28;;;14.18;;
13611;SDS011;6877;51.436;6.774;2023-01-19T15:15:15;33.83;;;16.15;;
13611;SDS011;6877;51.436;6.774;2023-01-19T15:17:48;33.25;;;14.40;;
13611;SDS011;6877;51.436;6.774;2023-01-19T15:20:17;29.38;;;14.23;;
13611;SDS011;6877;51.436;6.774;2023-01-19T15:22:50;30.52;;;15.75;;
13611;SDS011;6877;51.436;6.774;2023-01-19T15:25:20;27.38;;;13.43;;
13611;SDS011;6877;51.436;6.774;2023-01-19T15:27:51;32.85;;;13.68;;
13611;SDS011;6877;51.436;6.774;2023-01-19T15:30:22;28.00;;;14.10;;
13611;SDS011;6877;51.436;6.774;2023-01-19T15:32:50;27.48;;;13.45;;
13611;SDS011;6877;51.436;6.774;2023-01-19T15:35:20;27.73;;;14.25;;
13611;SDS011;6877;51.436;6.774;2023-01-19T15:37:53;30.30;;;13.43;;
13611;SDS011;6877;51.436;6.774;2023-01-19T15:40:25;28.65;;;14.13;;
13611;SDS011;6877;51.436;6.774;2023-01-19T15:42:51;33.05;;;15.52;;
13611;SDS011;6877;51.436;6.774;2023-01-19T15:45:37;28.73;;;14.75;;
13611;SDS011;6877;51.436;6.774;2023-01-19T15:48:07;26.00;;;13.68;;
13611;SDS011;6877;51.436;6.774;2023-01-19T15:50:36;29.10;;;15.05;;
13611;SDS011;6877;51.436;6.774;2023-01-19T15:53:05;36.33;;;16.38;;
13611;SDS011;6877;51.436;6.774;2023-01-19T15:55:32;29.90;;;14.55;;
13611;SDS011;6877;51.436;6.774;2023-01-19T15:57:59;35.40;;;14.25;;
13611;SDS011;6877;51.436;6.774;2023-01-19T16:00:33;32.60;;;14.88;;
13611;SDS011;6877;51.436;6.774;2023-01-19T16:03:00;27.60;;;15.13;;
13611;SDS011;6877;51.436;6.774;2023-01-19T16:05:32;28.83;;;13.68;;
13611;SDS011;6877;51.436;6.774;2023-01-19T16:08:04;33.08;;;15.73;;
13611;SDS011;6877;51.436;6.774;2023-01-19T16:10:30;33.45;;;15.15;;
13611;SDS011;6877;51.436;6.774;2023-01-19T16:12:57;30.42;;;14.55;;
13611;SDS011;6877;51.436;6.774;2023-01-19T16:15:26;34.00;;;15.00;;
13611;SDS011;6877;51.436;6.774;2023-01-19T16:17:52;32.92;;;14.75;;
13611;SDS011;6877;51.436;6.774;2023-01-19T16:20:19;26.15;;;14.27;;
13611;SDS011;6877;51.436;6.774;2023-01-19T16:22:45;33.60;;;14.93;;
13611;SDS011;6877;51.436;6.774;2023-01-19T16:25:12;31.90;;;16.52;;